• Join FlightAware (Why Join?)
  • Login
  • US Flag 
05:23AM EDT


 

Airport Tracker/Info


-or-


 

Live Flight TrackerFlight Track Log ✈ JBU1815 ✈ 29-Jul-2013 ✈ KSYR - KJFK

Flight Track Log - Related Links

Times and Time Zones

All times are in EDT time to prevent confusion due to time zone crossing. See the JBU1815 flight status page for this flight to view local times or setup timezone preferences in your user account.

Time Position Orientation Groundspeed Altitude Reporting Facility
EDT Latitude Longitude Course Direction KTS MPH feet Rate Location/Type
07:21PM 43.1072 -76.1406 154° Southeast 156 180 1,300  Level Boston Center
07:22PM 43.0719 -76.1356 174° South 212 244 2,900 2,160 Climbing Boston Center
07:23PM 43.0119 -76.0581 137° Southeast 243 280 6,300 2,460 Climbing Boston Center
07:24PM 42.8203 -75.8609 139° Southeast  Level FlightAware Approximate
07:24PM 42.9514 -75.9947 143° Southeast 265 305 8,900  Level Boston Center
07:25PM 42.7538 -75.7914 154° Southeast  Level FlightAware Approximate
07:25PM 42.8869 -75.9258 142° Southeast 281 323 12,000  Level Boston Center
07:26PM 42.6782 -75.7410 154° Southeast  Level FlightAware Approximate
07:26PM 42.8100 -75.8508 144° Southeast 311 358 13,600  Level Boston Center
07:27PM 42.7203 -75.7781 149° Southeast 345 397 16,000 2,280 Climbing Boston Center
07:28PM 42.6242 -75.7106 153° Southeast 372 428 18,200 2,340 Climbing Boston Center
07:29PM 42.5206 -75.6150 146° Southeast 400 460 20,700 1,380 Climbing Boston Center
07:30PM 42.4536 -75.4794 124° Southeast 410 472 21,000 120 Climbing Boston Center
07:31PM 42.3906 -75.3386 121° Southeast 423 487 21,000  Level Boston Center
07:32PM 42.3250 -75.2006 123° Southeast 435 501 21,000  Level Boston Center
07:33PM 42.2597 -75.0631 123° Southeast 435 501 21,000  Level Boston Center
07:34PM 42.1939 -74.9231 122° Southeast 440 506 21,000  Level Boston Center
07:35PM 42.1303 -74.7861 122° Southeast 440 506 21,000  Level Boston Center
07:36PM 42.0642 -74.6550 124° Southeast 440 506 21,000  Level Boston Center
07:37PM 42.0081 -74.5272 121° Southeast 440 506 21,000  Level Boston Center
07:38PM 41.9375 -74.3881 124° Southeast 434 499 21,000  Level Boston Center
07:41PM 41.7100 -74.1778 145° Southeast 386 444 21,000  Level New York Center
07:42PM 41.6028 -74.1417 166° South 386 444 21,000  Level New York Center
07:43PM 41.5122 -74.1039 163° South 386 444 21,000 -480 Level New York Center
07:44PM 41.4072 -74.0683 166° South 391 450 20,100 -540 Descending New York Center
07:45PM 41.3008 -74.0742 182° South 386 444 20,000 -60 Descending New York Center
07:46PM 41.1961 -74.0908 187° South 384 442 20,000  Level New York Center
07:47PM 41.0936 -74.1081 187° South 384 442 20,000 -540 Level New York Center
07:47PM 40.9833 -74.1167 183° South 372 428 19,000 -540 Descending New York TRACON
07:48PM 40.9000 -74.0833 163° South 346 398 19,000  Level New York TRACON
07:49PM 40.8167 -74.0500 163° South 334 384 19,000 -840 Level New York TRACON
07:50PM 40.7333 -74.0333 171° South 329 379 17,400 -1,620 Descending New York TRACON
07:52PM 40.6333 -74.0000 166° South 323 372 15,600 -1,620 Descending New York TRACON
07:53PM 40.5500 -73.9833 171° South 302 348 14,000 -1,860 Descending New York TRACON
07:53PM 40.4833 -73.9500 159° South 312 359 12,100 -2,040 Descending New York TRACON
07:54PM 40.4167 -73.8667 136° Southeast 302 348 10,200 -1,800 Descending New York TRACON
07:55PM 40.3500 -73.8000 143° Southeast 286 329 8,500 -1,800 Descending New York TRACON
07:56PM 40.2833 -73.7333 143° Southeast 282 325 6,700 -1,740 Descending New York TRACON
07:57PM 40.3167 -73.6500 62° Northeast 301 346 5,100 -1,380 Descending New York TRACON
07:58PM 40.3833 -73.6000 30° Northeast 280 322 4,000 -600 Descending New York TRACON
07:59PM 40.4500 -73.5500 30° Northeast 279 321 4,000  Level New York TRACON
08:00PM 40.5167 -73.5000 30° Northeast 241 277 4,000  Level New York TRACON
08:01PM 40.5500 -73.4500 49° Northeast 236 272 4,000  Level New York TRACON
08:02PM 40.6167 -73.4167 21° North 236 272 4,000  Level New York TRACON
08:03PM 40.6667 -73.4167 360° North 194 223 4,000 -60 Level New York TRACON
08:04PM 40.7167 -73.4500 333° Northwest 188 216 3,900 -480 Descending New York TRACON
08:05PM 40.7667 -73.4833 333° Northwest 183 211 3,000 -600 Descending New York TRACON
08:06PM 40.8000 -73.5333 311° West 182 209 2,700 -540 Descending New York TRACON
08:07PM 40.8000 -73.5833 270° West 173 199 2,000 -360 Descending New York TRACON
08:08PM 40.7667 -73.6333 229° Southwest 176 203 2,000  Level New York TRACON
08:09PM 40.7333 -73.6833 229° Southwest 168 193 2,000 -420 Level New York TRACON
08:10PM 40.7000 -73.7167 217° Southwest 144 166 1,200 -720 Descending New York TRACON
08:11PM 40.6667 -73.7333 201° Southwest 135 155 600 -600 Descending New York TRACON